Time;durP1;ratioP1;P1;durP2;ratioP2;P2;SDS_P1;SDS_P2;PMS_P1;PMS_P2;Temp;Humidity;BMP_temperature;BMP_pressure;BME280_temperature;BME280_humidity;BME280_pressure;Samples;Min_cycle;Max_cycle;Signal;HPM_P1;HPM_P2
2024/01/13 00:01:33;;;;;;;5.72;1.60;;;;;;;;;;5054641;28;20048;-81
2024/01/13 00:04:03;;;;;;;3.65;1.40;;;;;;;;;;5073478;28;20138;-82
2024/01/13 00:06:33;;;;;;;3.30;1.33;;;;;;;;;;5055940;28;20498;-82
2024/01/13 00:09:03;;;;;;;4.50;1.52;;;;;;;;;;5066488;28;20107;-81
2024/01/13 00:11:34;;;;;;;8.77;1.65;;;;;;;;;;5067166;28;20521;-81
2024/01/13 00:14:05;;;;;;;4.63;1.40;;;;;;;;;;5052488;28;20060;-79
2024/01/13 00:16:35;;;;;;;8.50;2.10;;;;;;;;;;5040809;28;20151;-80
2024/01/13 00:19:05;;;;;;;8.10;1.52;;;;;;;;;;5052283;28;20048;-81
2024/01/13 00:21:35;;;;;;;5.85;1.73;;;;;;;;;;5053416;28;20052;-81
2024/01/13 00:24:06;;;;;;;6.40;1.50;;;;;;;;;;5041108;28;20044;-81
2024/01/13 00:26:36;;;;;;;3.42;1.50;;;;;;;;;;5054396;28;20052;-81
2024/01/13 00:29:06;;;;;;;6.43;1.40;;;;;;;;;;5070975;28;20048;-81
2024/01/13 00:31:36;;;;;;;7.97;1.50;;;;;;;;;;5053444;28;20056;-80
2024/01/13 00:34:06;;;;;;;3.92;1.42;;;;;;;;;;5061476;28;20048;-81
2024/01/13 00:36:38;;;;;;;6.70;1.30;;;;;;;;;;5075950;28;20068;-81
2024/01/13 00:39:08;;;;;;;3.38;1.63;;;;;;;;;;5077631;28;20479;-81
2024/01/13 00:41:37;;;;;;;5.43;1.42;;;;;;;;;;5077477;28;20067;-81
2024/01/13 00:44:08;;;;;;;3.53;1.58;;;;;;;;;;5077690;28;20115;-81
2024/01/13 00:46:37;;;;;;;8.35;1.35;;;;;;;;;;5070469;28;20052;-81
2024/01/13 00:49:07;;;;;;;5.18;1.17;;;;;;;;;;5052617;28;20059;-80
2024/01/13 00:51:38;;;;;;;4.90;1.40;;;;;;;;;;5070306;28;20079;-80
2024/01/13 00:54:10;;;;;;;4.63;1.67;;;;;;;;;;5052137;28;20047;-80
2024/01/13 00:56:41;;;;;;;4.05;1.65;;;;;;;;;;5051995;28;20052;-81
2024/01/13 00:59:11;;;;;;;5.72;1.40;;;;;;;;;;5070756;28;20052;-80
2024/01/13 01:01:41;;;;;;;2.75;1.60;;;;;;;;;;5070090;28;20056;-80
2024/01/13 01:04:11;;;;;;;3.95;1.55;;;;;;;;;;5070349;28;20479;-80
2024/01/13 01:06:42;;;;;;;4.35;1.52;;;;;;;;;;5069665;28;20052;-80
2024/01/13 01:09:12;;;;;;;5.35;1.50;;;;;;;;;;5052249;28;20048;-81
2024/01/13 01:11:42;;;;;;;3.80;1.50;;;;;;;;;;5069902;28;20056;-80
2024/01/13 01:14:12;;;;;;;4.43;1.48;;;;;;;;;;5069563;28;20044;-80
2024/01/13 01:16:42;;;;;;;5.95;1.50;;;;;;;;;;5070290;28;20037;-80
2024/01/13 01:19:12;;;;;;;4.88;1.50;;;;;;;;;;5057998;28;20410;-81
2024/01/13 01:21:42;;;;;;;4.95;1.17;;;;;;;;;;5051088;28;21155;-80
2024/01/13 01:24:12;;;;;;;6.97;1.55;;;;;;;;;;5070157;28;20052;-80
2024/01/13 01:26:42;;;;;;;11.13;1.60;;;;;;;;;;5069953;28;20052;-81
2024/01/13 01:29:12;;;;;;;4.60;1.50;;;;;;;;;;5070164;28;20418;-80
2024/01/13 01:31:42;;;;;;;3.88;1.48;;;;;;;;;;5052602;28;20049;-80
2024/01/13 01:34:12;;;;;;;5.82;1.60;;;;;;;;;;5051353;28;20052;-80
2024/01/13 01:36:42;;;;;;;6.68;1.67;;;;;;;;;;5051470;28;20052;-80
2024/01/13 01:39:12;;;;;;;6.43;1.48;;;;;;;;;;5051666;28;20048;-80
2024/01/13 01:41:42;;;;;;;5.78;1.55;;;;;;;;;;5070500;28;20060;-80
2024/01/13 01:44:12;;;;;;;3.78;1.42;;;;;;;;;;5051858;28;20425;-80
2024/01/13 01:46:44;;;;;;;5.68;2.40;;;;;;;;;;5070304;28;20410;-80
2024/01/13 01:49:16;;;;;;;;;;;;;;;;;;5070607;28;20060;-80
2024/01/13 01:51:47;;;;;;;3.97;1.88;;;;;;;;;;5051113;28;20382;-80
2024/01/13 01:54:17;;;;;;;10.30;1.92;;;;;;;;;;5045396;28;20530;-80
2024/01/13 01:56:48;;;;;;;7.32;2.03;;;;;;;;;;5052979;28;20506;-80
2024/01/13 01:59:21;;;;;;;5.82;1.60;;;;;;;;;;5049204;28;20053;-80
2024/01/13 02:01:52;;;;;;;7.88;2.05;;;;;;;;;;5063481;28;20041;-80
2024/01/13 02:04:23;;;;;;;5.30;1.52;;;;;;;;;;5071798;28;20055;-80
2024/01/13 02:06:53;;;;;;;5.00;1.98;;;;;;;;;;5073129;28;20407;-80
2024/01/13 02:09:23;;;;;;;4.97;1.60;;;;;;;;;;5051892;28;20059;-80
2024/01/13 02:11:56;;;;;;;4.45;1.90;;;;;;;;;;5054407;28;20052;-80
2024/01/13 02:14:26;;;;;;;4.10;1.83;;;;;;;;;;5047009;28;20061;-79
2024/01/13 02:16:57;;;;;;;6.88;1.77;;;;;;;;;;5073443;28;20052;-80
2024/01/13 02:19:33;;;;;;;3.75;1.92;;;;;;;;;;5054365;28;20056;-79
2024/01/13 02:22:05;;;;;;;10.18;2.33;;;;;;;;;;5053151;28;20045;-80
2024/01/13 02:24:35;;;;;;;3.40;1.75;;;;;;;;;;5034753;28;20045;-79
2024/01/13 02:27:05;;;;;;;4.07;2.00;;;;;;;;;;5034562;28;20052;-80
2024/01/13 02:29:35;;;;;;;6.72;1.77;;;;;;;;;;5054945;28;20053;-80
2024/01/13 02:32:05;;;;;;;5.30;2.30;;;;;;;;;;5072284;28;20063;-79
2024/01/13 02:34:34;;;;;;;6.00;2.00;;;;;;;;;;5072948;28;20459;-79
2024/01/13 02:37:05;;;;;;;4.97;2.05;;;;;;;;;;5072615;28;20494;-83
2024/01/13 02:39:35;;;;;;;7.18;1.95;;;;;;;;;;5054026;28;20387;-83
2024/01/13 02:42:08;;;;;;;4.30;1.83;;;;;;;;;;5053949;28;20060;-83
2024/01/13 02:44:38;;;;;;;7.15;2.10;;;;;;;;;;5073129;28;20049;-83
2024/01/13 02:47:08;;;;;;;5.47;1.63;;;;;;;;;;5053389;28;20053;-83
2024/01/13 02:49:39;;;;;;;3.90;1.90;;;;;;;;;;5052547;28;20406;-82
2024/01/13 02:52:09;;;;;;;8.18;2.17;;;;;;;;;;5051035;28;20048;-82
2024/01/13 02:54:39;;;;;;;3.78;1.65;;;;;;;;;;5062459;28;20049;-82
2024/01/13 02:57:09;;;;;;;3.63;1.67;;;;;;;;;;5062180;28;20048;-82
2024/01/13 02:59:40;;;;;;;3.20;1.60;;;;;;;;;;5052673;28;20048;-82
2024/01/13 03:02:10;;;;;;;7.10;1.65;;;;;;;;;;5056296;28;20056;-82
2024/01/13 03:04:40;;;;;;;3.28;1.50;;;;;;;;;;5056582;28;20060;-82
2024/01/13 03:07:10;;;;;;;4.35;1.75;;;;;;;;;;5055996;28;20048;-83
2024/01/13 03:09:40;;;;;;;4.38;2.00;;;;;;;;;;5056173;28;20517;-83
2024/01/13 03:12:11;;;;;;;6.40;2.42;;;;;;;;;;5055699;28;20059;-81
2024/01/13 03:14:42;;;;;;;7.07;1.92;;;;;;;;;;5040011;28;20060;-83
2024/01/13 03:17:13;;;;;;;2.65;1.70;;;;;;;;;;5056001;28;20048;-84
2024/01/13 03:19:44;;;;;;;9.57;2.03;;;;;;;;;;5042236;28;20860;-84
2024/01/13 03:22:14;;;;;;;7.20;1.80;;;;;;;;;;5055742;28;20052;-85
2024/01/13 03:24:44;;;;;;;10.80;2.85;;;;;;;;;;5074237;28;20052;-85
2024/01/13 03:27:14;;;;;;;8.32;1.88;;;;;;;;;;5048739;28;20044;-85
2024/01/13 03:29:45;;;;;;;5.05;1.77;;;;;;;;;;5055455;28;20465;-85
2024/01/13 03:32:15;;;;;;;7.18;2.00;;;;;;;;;;5073242;28;20050;-85
2024/01/13 03:34:46;;;;;;;4.72;2.00;;;;;;;;;;5072359;28;20044;-85
2024/01/13 03:37:16;;;;;;;6.93;1.92;;;;;;;;;;5056290;28;20060;-85
2024/01/13 03:39:48;;;;;;;6.88;2.08;;;;;;;;;;5055556;28;20060;-84
2024/01/13 03:42:21;;;;;;;6.55;2.22;;;;;;;;;;5094874;28;20048;-85
2024/01/13 03:44:54;;;;;;;5.20;1.83;;;;;;;;;;5077365;28;20386;-84
2024/01/13 03:47:25;;;;;;;6.20;2.00;;;;;;;;;;5059483;28;20048;-84
2024/01/13 03:49:55;;;;;;;3.60;1.80;;;;;;;;;;5076826;28;20040;-84
2024/01/13 03:52:26;;;;;;;7.93;1.90;;;;;;;;;;5059178;28;20052;-84
2024/01/13 03:54:56;;;;;;;2.45;1.50;;;;;;;;;;5075663;28;20059;-84
2024/01/13 03:57:26;;;;;;;5.25;1.95;;;;;;;;;;5075745;28;20418;-83
2024/01/13 03:59:56;;;;;;;6.72;2.05;;;;;;;;;;5094546;28;20056;-84
2024/01/13 04:02:27;;;;;;;4.45;1.75;;;;;;;;;;5067769;28;20505;-85
2024/01/13 04:05:00;;;;;;;7.05;1.83;;;;;;;;;;5059064;28;20044;-84
2024/01/13 04:07:31;;;;;;;5.88;1.90;;;;;;;;;;5075811;28;20372;-84
2024/01/13 04:10:02;;;;;;;5.85;2.10;;;;;;;;;;5075863;28;20056;-84
2024/01/13 04:12:33;;;;;;;8.20;1.80;;;;;;;;;;5075808;28;20048;-84
2024/01/13 04:15:03;;;;;;;5.55;2.03;;;;;;;;;;5074788;28;20051;-84
2024/01/13 04:17:34;;;;;;;3.22;1.73;;;;;;;;;;5093786;28;20044;-84
2024/01/13 04:20:06;;;;;;;6.22;2.03;;;;;;;;;;5075602;28;20422;-84
2024/01/13 04:22:36;;;;;;;3.90;2.10;;;;;;;;;;5058629;28;20055;-84
2024/01/13 04:25:08;;;;;;;8.25;2.15;;;;;;;;;;5058657;28;20059;-84
2024/01/13 04:27:39;;;;;;;5.50;1.77;;;;;;;;;;5075221;28;20482;-84
2024/01/13 04:30:09;;;;;;;6.35;2.13;;;;;;;;;;5093540;28;20070;-84
2024/01/13 04:32:41;;;;;;;7.72;2.08;;;;;;;;;;5093405;28;20051;-84
2024/01/13 04:35:12;;;;;;;7.43;2.40;;;;;;;;;;5074400;28;20506;-84
2024/01/13 04:37:42;;;;;;;6.22;2.63;;;;;;;;;;5076219;28;20047;-84
2024/01/13 04:40:13;;;;;;;5.53;2.25;;;;;;;;;;5059215;28;20043;-84
2024/01/13 04:42:44;;;;;;;4.28;1.88;;;;;;;;;;5076318;28;20040;-86
2024/01/13 04:45:15;;;;;;;5.15;2.30;;;;;;;;;;5058394;28;20048;-86
2024/01/13 04:47:46;;;;;;;5.28;2.13;;;;;;;;;;5075494;28;20055;-85
2024/01/13 04:50:16;;;;;;;7.40;2.85;;;;;;;;;;5076017;28;20047;-84
2024/01/13 04:52:46;;;;;;;9.65;2.83;;;;;;;;;;5071499;28;20498;-84
2024/01/13 04:55:17;;;;;;;4.28;2.33;;;;;;;;;;5074107;28;20056;-84
2024/01/13 04:57:48;;;;;;;7.88;2.85;;;;;;;;;;5058344;28;20052;-84
2024/01/13 05:00:19;;;;;;;4.72;2.47;;;;;;;;;;5092993;28;20048;-84
2024/01/13 05:02:49;;;;;;;8.52;3.20;;;;;;;;;;5074806;28;20044;-85
2024/01/13 05:05:25;;;;;;;6.60;3.63;;;;;;;;;;5051302;28;20048;-85
2024/01/13 05:07:55;;;;;;;8.55;2.80;;;;;;;;;;5092756;28;20055;-84
2024/01/13 05:10:26;;;;;;;10.50;3.40;;;;;;;;;;5058510;28;20059;-84
2024/01/13 05:12:56;;;;;;;9.20;2.83;;;;;;;;;;5074525;28;20048;-85
2024/01/13 05:15:26;;;;;;;6.60;3.00;;;;;;;;;;5092889;28;20048;-85
2024/01/13 05:17:57;;;;;;;6.72;2.90;;;;;;;;;;5058203;28;20056;-84
2024/01/13 05:20:28;;;;;;;7.72;2.78;;;;;;;;;;5054552;28;20063;-84
2024/01/13 05:23:01;;;;;;;10.02;3.30;;;;;;;;;;5072459;28;20055;-84
2024/01/13 05:25:32;;;;;;;7.18;3.05;;;;;;;;;;5075463;28;20051;-84
2024/01/13 05:28:04;;;;;;;7.38;3.45;;;;;;;;;;5092639;28;20406;-84
2024/01/13 05:30:33;;;;;;;;;;;;;;;;;;5093419;28;20111;-84
2024/01/13 05:33:04;;;;;;;8.85;3.15;;;;;;;;;;5074267;28;19927;-84
2024/01/13 05:35:35;;;;;;;7.55;3.15;;;;;;;;;;5073559;28;20064;-83
2024/01/13 05:38:06;;;;;;;10.00;3.40;;;;;;;;;;5093191;28;20044;-85
2024/01/13 05:40:40;;;;;;;8.13;3.40;;;;;;;;;;5092665;28;20044;-84
2024/01/13 05:43:11;;;;;;;10.02;3.30;;;;;;;;;;5074384;28;20382;-84
2024/01/13 05:45:42;;;;;;;11.65;3.38;;;;;;;;;;5060460;28;20044;-84
2024/01/13 05:48:13;;;;;;;7.20;3.47;;;;;;;;;;5079390;28;20040;-84
2024/01/13 05:50:44;;;;;;;12.65;3.40;;;;;;;;;;5062133;28;20052;-85
2024/01/13 05:53:14;;;;;;;6.78;3.03;;;;;;;;;;5077348;28;20059;-85
2024/01/13 05:55:45;;;;;;;15.70;3.55;;;;;;;;;;5079130;28;20048;-84
2024/01/13 05:58:17;;;;;;;12.85;3.65;;;;;;;;;;5078588;28;20055;-86
2024/01/13 06:00:49;;;;;;;7.15;3.10;;;;;;;;;;5040604;28;20499;-85
2024/01/13 06:03:21;;;;;;;8.02;3.25;;;;;;;;;;5054504;28;20053;-85
2024/01/13 06:05:53;;;;;;;6.50;3.58;;;;;;;;;;5038562;28;20051;-84
2024/01/13 06:08:24;;;;;;;8.95;3.63;;;;;;;;;;5037424;28;20060;-85
2024/01/13 06:10:55;;;;;;;10.25;3.92;;;;;;;;;;5053891;28;20060;-84
2024/01/13 06:13:27;;;;;;;8.48;3.35;;;;;;;;;;5047707;28;20037;-85
2024/01/13 06:15:57;;;;;;;11.38;3.83;;;;;;;;;;5037341;28;20412;-85
2024/01/13 06:18:27;;;;;;;11.13;3.03;;;;;;;;;;5054548;28;20053;-86
2024/01/13 06:21:00;;;;;;;11.57;3.83;;;;;;;;;;5053615;28;20435;-84
2024/01/13 06:23:31;;;;;;;6.55;3.42;;;;;;;;;;5054682;28;20048;-85
2024/01/13 06:26:01;;;;;;;6.45;3.20;;;;;;;;;;5021177;28;20069;-85
2024/01/13 06:28:32;;;;;;;8.13;3.35;;;;;;;;;;5053565;28;20507;-84
2024/01/13 06:31:03;;;;;;;12.00;3.80;;;;;;;;;;5037058;28;20369;-86
2024/01/13 06:33:34;;;;;;;7.38;3.30;;;;;;;;;;5053405;28;20499;-86
2024/01/13 06:36:05;;;;;;;8.95;3.40;;;;;;;;;;5053595;28;20056;-86
2024/01/13 06:38:35;;;;;;;6.93;3.63;;;;;;;;;;5047865;28;20057;-84
2024/01/13 06:41:05;;;;;;;9.80;3.60;;;;;;;;;;5036253;28;20507;-84
2024/01/13 06:43:35;;;;;;;9.43;3.40;;;;;;;;;;5039074;28;20048;-86
2024/01/13 06:46:07;;;;;;;8.88;3.03;;;;;;;;;;5059811;28;20052;-85
2024/01/13 06:48:38;;;;;;;10.07;3.50;;;;;;;;;;5070996;28;20059;-84
2024/01/13 06:51:09;;;;;;;9.77;4.13;;;;;;;;;;5063583;28;20053;-84
2024/01/13 06:53:39;;;;;;;8.30;3.38;;;;;;;;;;5073675;28;20040;-86
2024/01/13 06:56:10;;;;;;;11.18;3.70;;;;;;;;;;5063417;28;20052;-87
2024/01/13 06:58:40;;;;;;;6.60;2.95;;;;;;;;;;5039741;28;20041;-87
2024/01/13 07:01:14;;;;;;;12.13;3.42;;;;;;;;;;5073959;28;20044;-85
2024/01/13 07:03:45;;;;;;;6.47;3.00;;;;;;;;;;5056522;28;20053;-85
2024/01/13 07:06:15;;;;;;;9.35;3.08;;;;;;;;;;5052238;28;20052;-85
2024/01/13 07:08:46;;;;;;;12.07;3.88;;;;;;;;;;5053600;28;20483;-87
2024/01/13 07:11:17;;;;;;;7.22;3.03;;;;;;;;;;5039618;28;20047;-87
2024/01/13 07:13:48;;;;;;;7.20;2.65;;;;;;;;;;5066532;28;20044;-85
2024/01/13 07:16:18;;;;;;;6.93;3.00;;;;;;;;;;5056206;28;20419;-86
2024/01/13 07:18:49;;;;;;;5.95;3.13;;;;;;;;;;5040636;28;20044;-87
2024/01/13 07:21:21;;;;;;;11.00;5.15;;;;;;;;;;5055739;28;20055;-86
2024/01/13 07:23:50;;;;;;;5.75;3.03;;;;;;;;;;5056069;28;20045;-87
2024/01/13 07:26:21;;;;;;;9.68;2.83;;;;;;;;;;5056582;28;20048;-86
2024/01/13 07:28:52;;;;;;;8.20;2.67;;;;;;;;;;5054790;28;20391;-86
2024/01/13 07:31:24;;;;;;;10.15;2.63;;;;;;;;;;5055020;28;20585;-86
2024/01/13 07:33:55;;;;;;;8.02;3.13;;;;;;;;;;5053825;28;20055;-87
2024/01/13 07:36:26;;;;;;;7.40;2.70;;;;;;;;;;5039760;28;20059;-87
2024/01/13 07:38:57;;;;;;;6.90;2.72;;;;;;;;;;5056658;28;20507;-87
2024/01/13 07:41:29;;;;;;;6.18;3.28;;;;;;;;;;5037622;28;20056;-86
2024/01/13 07:43:58;;;;;;;8.05;3.25;;;;;;;;;;5056196;28;20059;-88
2024/01/13 07:46:28;;;;;;;5.68;2.72;;;;;;;;;;5040221;28;20399;-87
2024/01/13 07:49:01;;;;;;;12.75;2.90;;;;;;;;;;5057390;28;20040;-86
2024/01/13 07:51:32;;;;;;;5.57;2.83;;;;;;;;;;5055743;28;20049;-89
2024/01/13 07:54:03;;;;;;;7.90;3.25;;;;;;;;;;5056083;28;20060;-90
2024/01/13 07:56:34;;;;;;;7.72;2.67;;;;;;;;;;5074913;28;20059;-86
2024/01/13 07:59:05;;;;;;;5.63;2.97;;;;;;;;;;5039785;28;20063;-86
2024/01/13 08:01:35;;;;;;;13.95;3.78;;;;;;;;;;5055803;28;20048;-86
2024/01/13 08:04:08;;;;;;;9.57;2.92;;;;;;;;;;5055213;28;20048;-88
2024/01/13 08:06:38;;;;;;;6.50;3.03;;;;;;;;;;5039891;28;20055;-87
2024/01/13 08:09:08;;;;;;;6.65;2.60;;;;;;;;;;5062774;28;20048;-90
2024/01/13 08:11:38;;;;;;;5.25;2.42;;;;;;;;;;5081981;28;20040;-87
2024/01/13 08:14:16;;;;;;;4.57;2.70;;;;;;;;;;5082967;28;20040;-88
2024/01/13 08:16:47;;;;;;;5.32;2.22;;;;;;;;;;5076428;28;20053;-90
2024/01/13 08:19:17;;;;;;;8.13;2.88;;;;;;;;;;5039271;28;20072;-89
2024/01/13 08:21:50;;;;;;;7.93;2.60;;;;;;;;;;5056453;28;20052;-87
2024/01/13 08:24:20;;;;;;;10.15;2.50;;;;;;;;;;5039290;28;20052;-87
2024/01/13 08:26:52;;;;;;;6.78;2.50;;;;;;;;;;5039448;28;20517;-87
2024/01/13 08:29:22;;;;;;;5.72;2.97;;;;;;;;;;5054807;28;20052;-89
2024/01/13 08:31:52;;;;;;;6.32;2.28;;;;;;;;;;5054940;28;20055;-88
2024/01/13 08:34:23;;;;;;;7.60;2.47;;;;;;;;;;5055214;28;20059;-86
2024/01/13 08:36:54;;;;;;;3.67;2.17;;;;;;;;;;5054947;28;20057;-87
2024/01/13 08:39:25;;;;;;;5.55;2.22;;;;;;;;;;5056014;28;20040;-86
2024/01/13 08:41:56;;;;;;;8.20;2.47;;;;;;;;;;5055246;28;20040;-87
2024/01/13 08:44:27;;;;;;;11.05;2.42;;;;;;;;;;5038777;28;20060;-86
2024/01/13 08:46:58;;;;;;;23.00;3.15;;;;;;;;;;5038132;28;20064;-88
2024/01/13 08:49:30;;;;;;;6.95;2.17;;;;;;;;;;5055180;28;20372;-87
2024/01/13 08:52:01;;;;;;;9.77;2.60;;;;;;;;;;5054864;28;20045;-87
2024/01/13 08:54:31;;;;;;;6.75;2.80;;;;;;;;;;5073113;28;20040;-86
2024/01/13 08:57:02;;;;;;;9.00;3.28;;;;;;;;;;5073363;28;20510;-87
2024/01/13 08:59:38;;;;;;;16.48;2.70;;;;;;;;;;5056411;28;20040;-87
2024/01/13 09:02:08;;;;;;;6.38;2.67;;;;;;;;;;5073483;28;20044;-86
2024/01/13 09:04:39;;;;;;;9.95;2.95;;;;;;;;;;5055341;28;20056;-89
2024/01/13 09:07:09;;;;;;;5.38;2.25;;;;;;;;;;5073425;28;20044;-86
2024/01/13 09:09:40;;;;;;;8.82;2.22;;;;;;;;;;5055190;28;20053;-87
2024/01/13 09:12:11;;;;;;;5.57;2.33;;;;;;;;;;5054996;28;20052;-91
2024/01/13 09:14:41;;;;;;;7.68;2.97;;;;;;;;;;5054693;28;20475;-87
2024/01/13 09:17:11;;;;;;;8.65;2.20;;;;;;;;;;5071196;28;20055;-89
2024/01/13 09:19:43;;;;;;;5.43;2.35;;;;;;;;;;5059245;28;20041;-87
2024/01/13 09:22:13;;;;;;;7.97;2.17;;;;;;;;;;5058788;28;20048;-88
2024/01/13 09:24:44;;;;;;;5.25;2.35;;;;;;;;;;5059528;28;20040;-87
2024/01/13 09:27:18;;;;;;;4.82;1.83;;;;;;;;;;5058375;28;20053;-87
2024/01/13 09:29:50;;;;;;;7.80;2.28;;;;;;;;;;5076914;28;20490;-86
2024/01/13 09:32:20;;;;;;;7.55;1.80;;;;;;;;;;5042307;28;20053;-86
2024/01/13 09:34:51;;;;;;;8.27;1.88;;;;;;;;;;5058568;28;20056;-88
2024/01/13 09:37:22;;;;;;;3.20;1.65;;;;;;;;;;5059993;28;20055;-87
2024/01/13 09:39:53;;;;;;;8.20;1.40;;;;;;;;;;5059368;28;20056;-86
2024/01/13 09:42:36;;;;;;;4.45;1.40;;;;;;;;;;5061101;28;20390;-86
2024/01/13 09:45:10;;;;;;;3.58;1.40;;;;;;;;;;5056005;28;20061;-88
2024/01/13 09:47:42;;;;;;;6.97;1.73;;;;;;;;;;5039560;28;20390;-85
2024/01/13 09:50:14;;;;;;;6.40;1.63;;;;;;;;;;5057491;28;20071;-85
2024/01/13 09:52:46;;;;;;;4.72;1.50;;;;;;;;;;5073563;28;20053;-86
2024/01/13 09:55:19;;;;;;;6.60;1.30;;;;;;;;;;5059037;28;20049;-86
2024/01/13 09:57:50;;;;;;;7.55;1.48;;;;;;;;;;5039411;28;20422;-87
2024/01/13 10:00:22;;;;;;;4.47;1.40;;;;;;;;;;5057051;28;20060;-84
2024/01/13 10:02:53;;;;;;;3.58;1.02;;;;;;;;;;5043086;28;20049;-86
2024/01/13 10:05:25;;;;;;;2.95;1.00;;;;;;;;;;5055818;28;20049;-86
2024/01/13 10:07:55;;;;;;;5.35;0.98;;;;;;;;;;5039627;28;20053;-89
2024/01/13 10:10:28;;;;;;;7.25;1.40;;;;;;;;;;5056695;28;20044;-90
2024/01/13 10:12:59;;;;;;;2.05;0.73;;;;;;;;;;5073472;28;20056;-86
2024/01/13 10:15:29;;;;;;;4.25;0.80;;;;;;;;;;5039190;28;20395;-88
2024/01/13 10:18:00;;;;;;;1.60;0.52;;;;;;;;;;5055133;28;20053;-88
2024/01/13 10:20:31;;;;;;;;;;;;;;;;;;5056349;28;20502;-86
2024/01/13 10:23:01;;;;;;;4.30;0.70;;;;;;;;;;5038436;28;20405;-85
2024/01/13 10:25:31;;;;;;;1.02;0.60;;;;;;;;;;5056725;28;20044;-85
2024/01/13 10:28:04;;;;;;;2.45;0.85;;;;;;;;;;5056198;28;20048;-84
2024/01/13 10:30:35;;;;;;;1.50;0.60;;;;;;;;;;5072910;28;20052;-84
2024/01/13 10:33:05;;;;;;;1.20;0.43;;;;;;;;;;5055730;28;20096;-84
2024/01/13 10:35:37;;;;;;;1.30;0.63;;;;;;;;;;5039228;28;20059;-84
2024/01/13 10:38:07;;;;;;;2.17;0.70;;;;;;;;;;5072930;28;20057;-85
2024/01/13 10:40:37;;;;;;;0.63;0.50;;;;;;;;;;5038069;28;20052;-84
2024/01/13 10:43:13;;;;;;;1.83;0.60;;;;;;;;;;5071100;28;20048;-85
2024/01/13 10:45:46;;;;;;;1.08;0.70;;;;;;;;;;5054773;28;20044;-84
2024/01/13 10:48:31;;;;;;;1.13;0.43;;;;;;;;;;5054807;28;20067;-87
2024/01/13 10:51:01;;;;;;;;;;;;;;;;;;5054820;28;20048;-85
2024/01/13 10:53:32;;;;;;;3.83;0.60;;;;;;;;;;5055012;28;19920;-88
2024/01/13 10:56:05;;;;;;;1.95;0.60;;;;;;;;;;5030914;28;20518;-86
2024/01/13 10:58:36;;;;;;;2.88;0.50;;;;;;;;;;5038294;28;20072;-86
2024/01/13 11:01:09;;;;;;;2.40;0.70;;;;;;;;;;5051838;28;20068;-90
2024/01/13 11:03:56;;;;;;;2.60;1.20;;;;;;;;;;5054274;28;20055;-86
2024/01/13 11:06:26;;;;;;;1.35;0.65;;;;;;;;;;5034136;28;20053;-87
2024/01/13 11:08:57;;;;;;;3.08;0.60;;;;;;;;;;5052100;28;20075;-83
2024/01/13 11:11:42;;;;;;;1.00;0.45;;;;;;;;;;5034841;28;20060;-87
2024/01/13 11:14:31;;;;;;;3.70;1.13;;;;;;;;;;5040223;28;20060;-91
2024/01/13 11:17:02;;;;;;;1.42;0.50;;;;;;;;;;5074885;28;20504;-86
2024/01/13 11:19:33;;;;;;;1.95;0.52;;;;;;;;;;5074943;28;20044;-85
2024/01/13 11:22:31;;;;;;;0.50;0.40;;;;;;;;;;5074875;28;20355;-85
2024/01/13 11:25:28;;;;;;;2.08;0.75;;;;;;;;;;5036002;28;20063;-86
2024/01/13 11:28:00;;;;;;;2.15;0.57;;;;;;;;;;5056030;28;20055;-88
2024/01/13 11:30:39;;;;;;;0.93;0.50;;;;;;;;;;5056042;28;20475;-91
2024/01/13 11:33:12;;;;;;;1.77;0.75;;;;;;;;;;5058185;28;20483;-90
2024/01/13 11:35:50;;;;;;;1.75;0.40;;;;;;;;;;5056090;28;20498;-86
2024/01/13 11:38:22;;;;;;;2.28;0.60;;;;;;;;;;5057512;28;20487;-83
2024/01/13 11:40:56;;;;;;;1.23;0.52;;;;;;;;;;5074161;28;20406;-90
2024/01/13 11:43:27;;;;;;;0.82;0.47;;;;;;;;;;5039529;28;20403;-87
2024/01/13 11:45:57;;;;;;;1.02;0.60;;;;;;;;;;5055919;28;20049;-90
2024/01/13 11:48:30;;;;;;;1.67;0.75;;;;;;;;;;5039230;28;20052;-87
2024/01/13 11:51:08;;;;;;;1.40;0.60;;;;;;;;;;5056117;28;20044;-88
2024/01/13 11:53:42;;;;;;;0.80;0.50;;;;;;;;;;5068764;28;20067;-88
2024/01/13 11:56:14;;;;;;;1.10;0.63;;;;;;;;;;5076025;28;20048;-85
2024/01/13 11:58:44;;;;;;;2.42;0.50;;;;;;;;;;5094879;28;20051;-85
2024/01/13 12:01:17;;;;;;;3.03;0.60;;;;;;;;;;5070925;28;20379;-86
2024/01/13 12:04:00;;;;;;;1.00;0.50;;;;;;;;;;5064218;28;20044;-86
2024/01/13 12:06:30;;;;;;;2.53;0.73;;;;;;;;;;5072370;28;20470;-86
2024/01/13 12:09:01;;;;;;;1.38;0.60;;;;;;;;;;5054715;28;20513;-84
2024/01/13 12:11:32;;;;;;;1.25;0.65;;;;;;;;;;5071206;28;20056;-86
2024/01/13 12:14:06;;;;;;;1.23;0.82;;;;;;;;;;5073444;28;20443;-89
2024/01/13 12:16:37;;;;;;;3.35;0.70;;;;;;;;;;5070982;28;20063;-85
2024/01/13 12:19:10;;;;;;;0.98;0.60;;;;;;;;;;5054800;28;20048;-85
2024/01/13 12:21:42;;;;;;;1.70;0.50;;;;;;;;;;5055499;28;20059;-85
2024/01/13 12:24:15;;;;;;;1.70;0.82;;;;;;;;;;5073127;28;20033;-82
2024/01/13 12:26:46;;;;;;;4.15;0.75;;;;;;;;;;5071118;28;20102;-87
2024/01/13 12:29:16;;;;;;;0.77;0.50;;;;;;;;;;5071803;28;20055;-86
2024/01/13 12:31:48;;;;;;;0.60;0.60;;;;;;;;;;5072579;28;20430;-84
2024/01/13 12:34:20;;;;;;;2.40;0.73;;;;;;;;;;5072916;28;20470;-87
2024/01/13 12:36:54;;;;;;;1.38;0.70;;;;;;;;;;5055110;28;20045;-88
2024/01/13 12:39:25;;;;;;;3.65;0.57;;;;;;;;;;5070919;28;20041;-82
2024/01/13 12:41:55;;;;;;;1.10;0.60;;;;;;;;;;5054605;28;20063;-86
2024/01/13 12:44:26;;;;;;;1.20;0.50;;;;;;;;;;5054270;28;20398;-87
2024/01/13 12:46:59;;;;;;;0.93;0.68;;;;;;;;;;5072782;28;20041;-85
2024/01/13 12:49:31;;;;;;;;;;;;;;;;;;5071267;28;20052;-86
2024/01/13 12:52:02;;;;;;;2.08;0.75;;;;;;;;;;5071367;28;20398;-89
2024/01/13 12:54:33;;;;;;;2.22;0.93;;;;;;;;;;5053731;28;20044;-83
2024/01/13 12:57:04;;;;;;;2.55;0.77;;;;;;;;;;5072766;28;20044;-87
2024/01/13 12:59:35;;;;;;;1.73;0.63;;;;;;;;;;5053950;28;20049;-86
2024/01/13 13:02:07;;;;;;;2.58;0.82;;;;;;;;;;5054676;28;20052;-89
2024/01/13 13:04:37;;;;;;;2.47;0.80;;;;;;;;;;5054659;28;20383;-89
2024/01/13 13:07:08;;;;;;;2.78;0.82;;;;;;;;;;5052101;28;20048;-87
2024/01/13 13:09:41;;;;;;;2.15;0.80;;;;;;;;;;5050642;28;20510;-84
2024/01/13 13:12:11;;;;;;;1.23;0.70;;;;;;;;;;5069537;28;20440;-86
2024/01/13 13:14:42;;;;;;;1.52;0.82;;;;;;;;;;5071023;28;20060;-91
2024/01/13 13:17:12;;;;;;;2.63;0.60;;;;;;;;;;5053311;28;20057;-85
2024/01/13 13:19:42;;;;;;;0.75;0.60;;;;;;;;;;5052728;28;20479;-88
2024/01/13 13:22:14;;;;;;;3.17;1.20;;;;;;;;;;5052958;28;20052;-88
2024/01/13 13:24:45;;;;;;;1.25;0.60;;;;;;;;;;5068424;28;20045;-88
2024/01/13 13:27:21;;;;;;;1.27;0.68;;;;;;;;;;5053073;28;20052;-85
2024/01/13 13:29:52;;;;;;;2.20;0.63;;;;;;;;;;5052304;28;20045;-87
2024/01/13 13:32:24;;;;;;;1.13;0.50;;;;;;;;;;5054665;28;20053;-89
2024/01/13 13:35:01;;;;;;;2.20;1.15;;;;;;;;;;5053039;28;20053;-91
2024/01/13 13:37:47;;;;;;;0.80;0.60;;;;;;;;;;5052766;28;20049;-86
2024/01/13 13:40:18;;;;;;;2.35;0.73;;;;;;;;;;5059493;28;20048;-88
2024/01/13 13:42:48;;;;;;;1.73;0.73;;;;;;;;;;5090468;28;20048;-92
2024/01/13 13:45:19;;;;;;;2.90;0.70;;;;;;;;;;5074182;28;20047;-92
2024/01/13 13:47:53;;;;;;;3.83;0.70;;;;;;;;;;5072040;28;20537;-84
2024/01/13 13:50:30;;;;;;;1.02;0.70;;;;;;;;;;5072449;28;20052;-88
2024/01/13 13:53:00;;;;;;;2.55;0.63;;;;;;;;;;5072505;28;20048;-88
2024/01/13 13:55:30;;;;;;;1.95;0.63;;;;;;;;;;5082557;28;20528;-85
2024/01/13 13:58:02;;;;;;;3.50;1.00;;;;;;;;;;5110634;28;20421;-86
2024/01/13 14:00:33;;;;;;;1.10;0.73;;;;;;;;;;5110002;28;20050;-84
2024/01/13 14:03:04;;;;;;;;;;;;;;;;;;5076994;28;20052;-87
2024/01/13 14:05:36;;;;;;;1.70;0.77;;;;;;;;;;5092950;28;19920;-85
2024/01/13 14:08:07;;;;;;;2.72;0.68;;;;;;;;;;5078812;28;20047;-86
2024/01/13 14:10:39;;;;;;;2.58;0.80;;;;;;;;;;5113656;28;20044;-86
2024/01/13 14:13:10;;;;;;;1.23;0.63;;;;;;;;;;5095217;28;20513;-86
2024/01/13 14:15:41;;;;;;;1.17;0.65;;;;;;;;;;5095847;28;20489;-89
2024/01/13 14:18:11;;;;;;;1.92;0.90;;;;;;;;;;5079313;28;20055;-85
2024/01/13 14:20:42;;;;;;;1.45;0.70;;;;;;;;;;5096400;28;20047;-88
2024/01/13 14:23:18;;;;;;;3.42;0.95;;;;;;;;;;5096941;28;20066;-89
2024/01/13 14:25:48;;;;;;;1.85;0.85;;;;;;;;;;5069144;28;20056;-87
2024/01/13 14:28:22;;;;;;;3.25;0.82;;;;;;;;;;5058044;28;20052;-88
2024/01/13 14:30:56;;;;;;;2.53;1.00;;;;;;;;;;5075411;28;20052;-89
2024/01/13 14:33:26;;;;;;;2.30;0.63;;;;;;;;;;5058320;28;20064;-89
2024/01/13 14:35:56;;;;;;;2.47;0.90;;;;;;;;;;5075622;28;20052;-89
2024/01/13 14:38:31;;;;;;;0.90;0.80;;;;;;;;;;5059475;28;20479;-88
2024/01/13 14:41:03;;;;;;;2.75;0.90;;;;;;;;;;5073933;28;20052;-88
2024/01/13 14:43:33;;;;;;;2.22;0.82;;;;;;;;;;5058351;28;20052;-89
2024/01/13 14:46:03;;;;;;;2.78;0.73;;;;;;;;;;5058262;28;20053;-88
2024/01/13 14:48:36;;;;;;;1.05;0.88;;;;;;;;;;5074312;28;20048;-91
2024/01/13 14:51:07;;;;;;;1.02;0.45;;;;;;;;;;5060770;28;20041;-88
2024/01/13 14:53:39;;;;;;;1.35;0.73;;;;;;;;;;5058973;28;20053;-90
2024/01/13 14:56:10;;;;;;;2.75;0.80;;;;;;;;;;5034881;28;20064;-87
2024/01/13 14:58:40;;;;;;;2.85;0.88;;;;;;;;;;5054148;28;20053;-87
2024/01/13 15:01:10;;;;;;;1.55;0.60;;;;;;;;;;5035418;28;20538;-88
2024/01/13 15:03:40;;;;;;;1.92;0.75;;;;;;;;;;5036164;28;20072;-88
2024/01/13 15:06:11;;;;;;;1.13;0.52;;;;;;;;;;5035075;28;20053;-86
2024/01/13 15:08:43;;;;;;;0.95;0.63;;;;;;;;;;5035745;28;20064;-86